sensor_id;sensor_type;location;lat;lon;timestamp;temperature;humidity
70154;DHT22;57519;51.494;-2.626;2023-05-07T00:00:32;10.67;93.34
70154;DHT22;57519;51.494;-2.626;2023-05-07T00:02:59;10.60;93.83
70154;DHT22;57519;51.494;-2.626;2023-05-07T00:05:25;10.45;93.50
70154;DHT22;57519;51.494;-2.626;2023-05-07T00:07:51;10.42;93.50
70154;DHT22;57519;51.494;-2.626;2023-05-07T00:10:18;10.45;93.88
70154;DHT22;57519;51.494;-2.626;2023-05-07T00:12:44;10.46;93.88
70154;DHT22;57519;51.494;-2.626;2023-05-07T00:15:10;10.45;93.60
70154;DHT22;57519;51.494;-2.626;2023-05-07T00:17:35;10.45;93.55
70154;DHT22;57519;51.494;-2.626;2023-05-07T00:20:02;10.43;93.55
70154;DHT22;57519;51.494;-2.626;2023-05-07T00:22:28;10.38;93.52
70154;DHT22;57519;51.494;-2.626;2023-05-07T00:24:55;10.33;93.35
70154;DHT22;57519;51.494;-2.626;2023-05-07T00:27:21;10.26;93.17
70154;DHT22;57519;51.494;-2.626;2023-05-07T00:29:46;10.21;93.19
70154;DHT22;57519;51.494;-2.626;2023-05-07T00:32:12;10.12;93.13
70154;DHT22;57519;51.494;-2.626;2023-05-07T00:34:37;10.06;93.25
70154;DHT22;57519;51.494;-2.626;2023-05-07T00:37:04;10.06;93.56
70154;DHT22;57519;51.494;-2.626;2023-05-07T00:39:30;10.08;93.59
70154;DHT22;57519;51.494;-2.626;2023-05-07T00:41:55;10.09;93.61
70154;DHT22;57519;51.494;-2.626;2023-05-07T00:44:20;10.02;93.32
70154;DHT22;57519;51.494;-2.626;2023-05-07T00:46:46;9.94;93.31
70154;DHT22;57519;51.494;-2.626;2023-05-07T00:49:15;10.06;93.89
70154;DHT22;57519;51.494;-2.626;2023-05-07T00:51:41;10.08;93.75
70154;DHT22;57519;51.494;-2.626;2023-05-07T00:54:07;10.01;93.55
70154;DHT22;57519;51.494;-2.626;2023-05-07T00:56:33;10.01;93.52
70154;DHT22;57519;51.494;-2.626;2023-05-07T00:59:01;9.93;93.47
70154;DHT22;57519;51.494;-2.626;2023-05-07T01:01:27;9.94;93.54
70154;DHT22;57519;51.494;-2.626;2023-05-07T01:03:53;9.93;93.57
70154;DHT22;57519;51.494;-2.626;2023-05-07T01:06:19;10.11;94.29
70154;DHT22;57519;51.494;-2.626;2023-05-07T01:08:46;10.15;94.06
70154;DHT22;57519;51.494;-2.626;2023-05-07T01:11:18;10.16;93.79
70154;DHT22;57519;51.494;-2.626;2023-05-07T01:13:46;10.16;93.64
70154;DHT22;57519;51.494;-2.626;2023-05-07T01:16:12;10.25;93.80
70154;DHT22;57519;51.494;-2.626;2023-05-07T01:18:37;10.35;93.71
70154;DHT22;57519;51.494;-2.626;2023-05-07T01:21:04;10.50;93.80
70154;DHT22;57519;51.494;-2.626;2023-05-07T01:23:30;10.71;94.35
70154;DHT22;57519;51.494;-2.626;2023-05-07T01:25:56;10.94;94.85
70154;DHT22;57519;51.494;-2.626;2023-05-07T01:28:21;11.06;94.92
70154;DHT22;57519;51.494;-2.626;2023-05-07T01:30:52;11.18;94.76
70154;DHT22;57519;51.494;-2.626;2023-05-07T01:33:20;11.24;94.64
70154;DHT22;57519;51.494;-2.626;2023-05-07T01:35:53;11.27;94.43
70154;DHT22;57519;51.494;-2.626;2023-05-07T01:38:21;11.22;94.00
70154;DHT22;57519;51.494;-2.626;2023-05-07T01:40:47;11.27;94.05
70154;DHT22;57519;51.494;-2.626;2023-05-07T01:43:12;11.25;94.03
70154;DHT22;57519;51.494;-2.626;2023-05-07T01:45:38;11.35;94.10
70154;DHT22;57519;51.494;-2.626;2023-05-07T01:48:05;11.40;94.34
70154;DHT22;57519;51.494;-2.626;2023-05-07T01:50:31;11.48;94.40
70154;DHT22;57519;51.494;-2.626;2023-05-07T01:52:57;11.54;94.45
70154;DHT22;57519;51.494;-2.626;2023-05-07T01:55:22;11.62;94.44
70154;DHT22;57519;51.494;-2.626;2023-05-07T01:57:48;11.63;94.41
70154;DHT22;57519;51.494;-2.626;2023-05-07T02:00:14;11.66;94.41
70154;DHT22;57519;51.494;-2.626;2023-05-07T02:02:40;11.65;94.35
70154;DHT22;57519;51.494;-2.626;2023-05-07T02:05:05;11.67;94.46
70154;DHT22;57519;51.494;-2.626;2023-05-07T02:07:31;11.70;94.53
70154;DHT22;57519;51.494;-2.626;2023-05-07T02:09:56;11.65;94.60
70154;DHT22;57519;51.494;-2.626;2023-05-07T02:12:22;11.65;94.67
70154;DHT22;57519;51.494;-2.626;2023-05-07T02:14:48;11.66;94.69
70154;DHT22;57519;51.494;-2.626;2023-05-07T02:17:13;11.65;94.76
70154;DHT22;57519;51.494;-2.626;2023-05-07T02:19:39;11.65;94.83
70154;DHT22;57519;51.494;-2.626;2023-05-07T02:22:04;11.67;94.84
70154;DHT22;57519;51.494;-2.626;2023-05-07T02:24:30;11.75;94.72
70154;DHT22;57519;51.494;-2.626;2023-05-07T02:26:55;11.76;94.68
70154;DHT22;57519;51.494;-2.626;2023-05-07T02:29:21;11.77;94.69
70154;DHT22;57519;51.494;-2.626;2023-05-07T02:31:46;11.73;94.62
70154;DHT22;57519;51.494;-2.626;2023-05-07T02:34:16;11.76;94.67
70154;DHT22;57519;51.494;-2.626;2023-05-07T02:36:41;11.69;94.75
70154;DHT22;57519;51.494;-2.626;2023-05-07T02:39:07;11.69;94.72
70154;DHT22;57519;51.494;-2.626;2023-05-07T02:41:32;11.67;94.81
70154;DHT22;57519;51.494;-2.626;2023-05-07T02:43:57;11.66;94.89
70154;DHT22;57519;51.494;-2.626;2023-05-07T02:46:23;11.70;94.89
70154;DHT22;57519;51.494;-2.626;2023-05-07T02:48:48;11.72;94.86
70154;DHT22;57519;51.494;-2.626;2023-05-07T02:51:14;11.69;94.84
70154;DHT22;57519;51.494;-2.626;2023-05-07T02:53:39;11.73;94.76
70154;DHT22;57519;51.494;-2.626;2023-05-07T02:56:05;11.72;94.71
70154;DHT22;57519;51.494;-2.626;2023-05-07T02:58:31;11.70;94.60
70154;DHT22;57519;51.494;-2.626;2023-05-07T03:00:57;11.69;94.68
70154;DHT22;57519;51.494;-2.626;2023-05-07T03:03:22;11.73;94.76
70154;DHT22;57519;51.494;-2.626;2023-05-07T03:05:48;11.75;94.75
70154;DHT22;57519;51.494;-2.626;2023-05-07T03:08:13;11.76;94.79
70154;DHT22;57519;51.494;-2.626;2023-05-07T03:10:39;11.79;94.79
70154;DHT22;57519;51.494;-2.626;2023-05-07T03:13:04;11.83;94.68
70154;DHT22;57519;51.494;-2.626;2023-05-07T03:15:30;11.79;94.52
70154;DHT22;57519;51.494;-2.626;2023-05-07T03:17:56;11.82;94.31
70154;DHT22;57519;51.494;-2.626;2023-05-07T03:20:22;11.80;94.27
70154;DHT22;57519;51.494;-2.626;2023-05-07T03:22:47;11.86;94.38
70154;DHT22;57519;51.494;-2.626;2023-05-07T03:25:12;11.87;94.28
70154;DHT22;57519;51.494;-2.626;2023-05-07T03:27:39;11.89;94.20
70154;DHT22;57519;51.494;-2.626;2023-05-07T03:30:05;11.86;93.77
70154;DHT22;57519;51.494;-2.626;2023-05-07T03:32:31;11.84;93.78
70154;DHT22;57519;51.494;-2.626;2023-05-07T03:34:57;11.73;93.52
70154;DHT22;57519;51.494;-2.626;2023-05-07T03:37:22;11.72;93.62
70154;DHT22;57519;51.494;-2.626;2023-05-07T03:39:47;11.75;93.66
70154;DHT22;57519;51.494;-2.626;2023-05-07T03:42:13;11.80;93.52
70154;DHT22;57519;51.494;-2.626;2023-05-07T03:44:38;11.79;93.51
70154;DHT22;57519;51.494;-2.626;2023-05-07T03:47:04;11.83;93.35
70154;DHT22;57519;51.494;-2.626;2023-05-07T03:49:29;11.80;93.09
70154;DHT22;57519;51.494;-2.626;2023-05-07T03:51:55;11.77;93.20
70154;DHT22;57519;51.494;-2.626;2023-05-07T03:54:20;11.76;93.36
70154;DHT22;57519;51.494;-2.626;2023-05-07T03:56:46;11.76;93.33
70154;DHT22;57519;51.494;-2.626;2023-05-07T03:59:12;11.79;93.35
70154;DHT22;57519;51.494;-2.626;2023-05-07T04:01:38;11.83;93.22
70154;DHT22;57519;51.494;-2.626;2023-05-07T04:04:04;11.77;92.88
70154;DHT22;57519;51.494;-2.626;2023-05-07T04:06:29;11.79;92.85
70154;DHT22;57519;51.494;-2.626;2023-05-07T04:08:55;11.75;92.81
70154;DHT22;57519;51.494;-2.626;2023-05-07T04:11:21;11.80;92.98
70154;DHT22;57519;51.494;-2.626;2023-05-07T04:13:46;11.80;92.94
70154;DHT22;57519;51.494;-2.626;2023-05-07T04:16:12;11.80;92.84
70154;DHT22;57519;51.494;-2.626;2023-05-07T04:18:38;11.82;92.86
70154;DHT22;57519;51.494;-2.626;2023-05-07T04:21:03;11.83;92.78
70154;DHT22;57519;51.494;-2.626;2023-05-07T04:23:29;11.80;92.53
70154;DHT22;57519;51.494;-2.626;2023-05-07T04:25:54;11.73;92.24
70154;DHT22;57519;51.494;-2.626;2023-05-07T04:28:20;11.72;92.26
70154;DHT22;57519;51.494;-2.626;2023-05-07T04:30:45;11.69;92.64
70154;DHT22;57519;51.494;-2.626;2023-05-07T04:33:11;11.67;92.51
70154;DHT22;57519;51.494;-2.626;2023-05-07T04:35:36;11.66;92.59
70154;DHT22;57519;51.494;-2.626;2023-05-07T04:38:02;11.66;92.67
70154;DHT22;57519;51.494;-2.626;2023-05-07T04:40:27;11.62;92.67
70154;DHT22;57519;51.494;-2.626;2023-05-07T04:42:53;11.62;92.59
70154;DHT22;57519;51.494;-2.626;2023-05-07T04:45:19;11.59;92.59
70154;DHT22;57519;51.494;-2.626;2023-05-07T04:47:44;11.49;92.50
70154;DHT22;57519;51.494;-2.626;2023-05-07T04:50:10;11.49;92.46
70154;DHT22;57519;51.494;-2.626;2023-05-07T04:52:36;11.43;92.58
70154;DHT22;57519;51.494;-2.626;2023-05-07T04:55:01;11.36;92.43
70154;DHT22;57519;51.494;-2.626;2023-05-07T04:57:27;11.34;92.56
70154;DHT22;57519;51.494;-2.626;2023-05-07T04:59:53;11.28;92.58
70154;DHT22;57519;51.494;-2.626;2023-05-07T05:02:18;11.27;92.66
70154;DHT22;57519;51.494;-2.626;2023-05-07T05:04:44;11.18;92.72
70154;DHT22;57519;51.494;-2.626;2023-05-07T05:07:09;11.11;92.63
70154;DHT22;57519;51.494;-2.626;2023-05-07T05:09:35;11.04;92.71
70154;DHT22;57519;51.494;-2.626;2023-05-07T05:12:00;11.08;92.72
70154;DHT22;57519;51.494;-2.626;2023-05-07T05:14:26;11.11;92.72
70154;DHT22;57519;51.494;-2.626;2023-05-07T05:16:51;11.10;92.70
70154;DHT22;57519;51.494;-2.626;2023-05-07T05:19:16;11.14;92.70
70154;DHT22;57519;51.494;-2.626;2023-05-07T05:21:42;11.12;92.62
70154;DHT22;57519;51.494;-2.626;2023-05-07T05:24:07;11.18;92.54
70154;DHT22;57519;51.494;-2.626;2023-05-07T05:26:34;11.21;92.31
70154;DHT22;57519;51.494;-2.626;2023-05-07T05:28:59;11.19;92.27
70154;DHT22;57519;51.494;-2.626;2023-05-07T05:31:25;11.21;92.15
70154;DHT22;57519;51.494;-2.626;2023-05-07T05:33:50;11.27;91.84
70154;DHT22;57519;51.494;-2.626;2023-05-07T05:36:16;11.24;91.68
70154;DHT22;57519;51.494;-2.626;2023-05-07T05:38:41;11.31;91.58
70154;DHT22;57519;51.494;-2.626;2023-05-07T05:43:32;11.42;91.15
70154;DHT22;57519;51.494;-2.626;2023-05-07T05:45:58;11.49;90.88
70154;DHT22;57519;51.494;-2.626;2023-05-07T05:48:23;11.56;90.69
70154;DHT22;57519;51.494;-2.626;2023-05-07T05:50:49;11.69;90.85
70154;DHT22;57519;51.494;-2.626;2023-05-07T05:53:14;11.76;90.57
70154;DHT22;57519;51.494;-2.626;2023-05-07T05:55:41;11.91;90.23
70154;DHT22;57519;51.494;-2.626;2023-05-07T05:58:07;12.07;89.56
70154;DHT22;57519;51.494;-2.626;2023-05-07T06:00:32;12.11;89.24
70154;DHT22;57519;51.494;-2.626;2023-05-07T06:02:58;12.11;88.93
70154;DHT22;57519;51.494;-2.626;2023-05-07T06:05:23;12.10;88.94
70154;DHT22;57519;51.494;-2.626;2023-05-07T06:07:49;12.10;89.01
70154;DHT22;57519;51.494;-2.626;2023-05-07T06:10:14;12.05;88.98
70154;DHT22;57519;51.494;-2.626;2023-05-07T06:12:40;12.04;88.88
70154;DHT22;57519;51.494;-2.626;2023-05-07T06:15:06;12.05;89.06
70154;DHT22;57519;51.494;-2.626;2023-05-07T06:17:31;12.11;89.11
70154;DHT22;57519;51.494;-2.626;2023-05-07T06:19:57;12.17;89.04
70154;DHT22;57519;51.494;-2.626;2023-05-07T06:22:22;12.20;89.07
70154;DHT22;57519;51.494;-2.626;2023-05-07T06:24:48;12.20;88.63
70154;DHT22;57519;51.494;-2.626;2023-05-07T06:27:13;12.20;88.81
70154;DHT22;57519;51.494;-2.626;2023-05-07T06:29:38;12.25;88.71
70154;DHT22;57519;51.494;-2.626;2023-05-07T06:32:11;12.16;88.63
70154;DHT22;57519;51.494;-2.626;2023-05-07T06:34:37;12.23;88.33
70154;DHT22;57519;51.494;-2.626;2023-05-07T06:37:03;12.32;88.47
70154;DHT22;57519;51.494;-2.626;2023-05-07T06:39:28;12.40;88.33
70154;DHT22;57519;51.494;-2.626;2023-05-07T06:41:54;12.37;88.22
70154;DHT22;57519;51.494;-2.626;2023-05-07T06:44:20;12.34;87.58
70154;DHT22;57519;51.494;-2.626;2023-05-07T06:46:45;12.42;87.79
70154;DHT22;57519;51.494;-2.626;2023-05-07T06:49:13;12.48;87.66
70154;DHT22;57519;51.494;-2.626;2023-05-07T06:51:38;12.52;87.22
70154;DHT22;57519;51.494;-2.626;2023-05-07T06:54:04;12.58;86.76
70154;DHT22;57519;51.494;-2.626;2023-05-07T06:56:30;12.65;86.43
70154;DHT22;57519;51.494;-2.626;2023-05-07T06:58:56;12.97;86.25
70154;DHT22;57519;51.494;-2.626;2023-05-07T07:01:21;13.10;85.62
70154;DHT22;57519;51.494;-2.626;2023-05-07T07:03:47;13.10;84.43
70154;DHT22;57519;51.494;-2.626;2023-05-07T07:06:12;13.24;84.66
70154;DHT22;57519;51.494;-2.626;2023-05-07T07:08:38;13.34;84.59
70154;DHT22;57519;51.494;-2.626;2023-05-07T07:18:02;13.30;84.17
70154;DHT22;57519;51.494;-2.626;2023-05-07T07:20:28;13.40;83.99
70154;DHT22;57519;51.494;-2.626;2023-05-07T07:22:53;13.36;83.23
70154;DHT22;57519;51.494;-2.626;2023-05-07T07:25:18;13.48;83.72
70154;DHT22;57519;51.494;-2.626;2023-05-07T07:27:44;13.50;83.07
70154;DHT22;57519;51.494;-2.626;2023-05-07T07:30:10;13.58;82.60
70154;DHT22;57519;51.494;-2.626;2023-05-07T07:32:35;13.68;82.78
70154;DHT22;57519;51.494;-2.626;2023-05-07T07:35:01;13.81;82.63
70154;DHT22;57519;51.494;-2.626;2023-05-07T07:37:27;13.69;83.11
70154;DHT22;57519;51.494;-2.626;2023-05-07T07:39:53;13.47;83.29
70154;DHT22;57519;51.494;-2.626;2023-05-07T07:42:18;13.51;83.83
70154;DHT22;57519;51.494;-2.626;2023-05-07T07:44:44;13.62;82.76
70154;DHT22;57519;51.494;-2.626;2023-05-07T07:47:09;13.79;82.14
70154;DHT22;57519;51.494;-2.626;2023-05-07T07:49:35;13.68;80.88
70154;DHT22;57519;51.494;-2.626;2023-05-07T07:52:01;13.59;81.84
70154;DHT22;57519;51.494;-2.626;2023-05-07T07:54:26;13.51;81.39
70154;DHT22;57519;51.494;-2.626;2023-05-07T07:56:52;13.71;80.80
70154;DHT22;57519;51.494;-2.626;2023-05-07T07:59:17;13.87;79.60
70154;DHT22;57519;51.494;-2.626;2023-05-07T08:01:44;14.27;79.23
70154;DHT22;57519;51.494;-2.626;2023-05-07T08:04:10;14.40;78.19
70154;DHT22;57519;51.494;-2.626;2023-05-07T08:06:36;14.50;77.92
70154;DHT22;57519;51.494;-2.626;2023-05-07T08:09:01;14.44;77.37
70154;DHT22;57519;51.494;-2.626;2023-05-07T08:11:27;14.30;77.59
70154;DHT22;57519;51.494;-2.626;2023-05-07T08:13:54;14.10;77.76
70154;DHT22;57519;51.494;-2.626;2023-05-07T08:16:19;14.05;77.95
70154;DHT22;57519;51.494;-2.626;2023-05-07T08:18:45;14.40;77.23
70154;DHT22;57519;51.494;-2.626;2023-05-07T08:21:10;14.63;77.32
70154;DHT22;57519;51.494;-2.626;2023-05-07T08:23:36;14.89;76.06
70154;DHT22;57519;51.494;-2.626;2023-05-07T08:26:02;14.93;75.72
70154;DHT22;57519;51.494;-2.626;2023-05-07T08:28:27;14.92;75.17
70154;DHT22;57519;51.494;-2.626;2023-05-07T08:30:53;14.92;75.70
70154;DHT22;57519;51.494;-2.626;2023-05-07T08:33:18;15.20;75.85
70154;DHT22;57519;51.494;-2.626;2023-05-07T08:35:43;15.29;74.46
70154;DHT22;57519;51.494;-2.626;2023-05-07T08:38:12;15.67;73.92
70154;DHT22;57519;51.494;-2.626;2023-05-07T08:40:39;15.85;73.67
70154;DHT22;57519;51.494;-2.626;2023-05-07T08:43:06;15.75;72.71
70154;DHT22;57519;51.494;-2.626;2023-05-07T08:45:34;15.83;73.28
70154;DHT22;57519;51.494;-2.626;2023-05-07T08:48:02;15.75;72.69
70154;DHT22;57519;51.494;-2.626;2023-05-07T08:50:28;15.98;71.81
70154;DHT22;57519;51.494;-2.626;2023-05-07T08:52:54;16.05;72.29
70154;DHT22;57519;51.494;-2.626;2023-05-07T08:55:22;16.18;72.37
70154;DHT22;57519;51.494;-2.626;2023-05-07T08:57:48;16.26;71.84
70154;DHT22;57519;51.494;-2.626;2023-05-07T09:00:13;15.98;71.96
70154;DHT22;57519;51.494;-2.626;2023-05-07T09:02:39;16.18;72.42
70154;DHT22;57519;51.494;-2.626;2023-05-07T09:05:05;16.25;72.58
70154;DHT22;57519;51.494;-2.626;2023-05-07T09:07:31;16.45;71.05
70154;DHT22;57519;51.494;-2.626;2023-05-07T09:09:57;16.11;72.99
70154;DHT22;57519;51.494;-2.626;2023-05-07T09:12:23;16.55;72.02
70154;DHT22;57519;51.494;-2.626;2023-05-07T09:14:49;16.67;70.47
70154;DHT22;57519;51.494;-2.626;2023-05-07T09:17:17;16.46;70.21
70154;DHT22;57519;51.494;-2.626;2023-05-07T09:19:44;16.48;70.29
70154;DHT22;57519;51.494;-2.626;2023-05-07T09:22:13;16.94;70.14
70154;DHT22;57519;51.494;-2.626;2023-05-07T09:24:39;16.84;69.25
70154;DHT22;57519;51.494;-2.626;2023-05-07T09:27:05;16.79;70.55
70154;DHT22;57519;51.494;-2.626;2023-05-07T09:29:38;17.07;69.07
70154;DHT22;57519;51.494;-2.626;2023-05-07T09:32:24;17.50;68.82
70154;DHT22;57519;51.494;-2.626;2023-05-07T09:34:50;17.59;67.09
70154;DHT22;57519;51.494;-2.626;2023-05-07T09:37:18;17.63;67.61
70154;DHT22;57519;51.494;-2.626;2023-05-07T09:39:46;17.10;67.42
70154;DHT22;57519;51.494;-2.626;2023-05-07T09:42:12;16.94;68.98
70154;DHT22;57519;51.494;-2.626;2023-05-07T09:44:40;16.97;69.29
70154;DHT22;57519;51.494;-2.626;2023-05-07T09:47:06;16.73;68.86
70154;DHT22;57519;51.494;-2.626;2023-05-07T09:49:34;16.97;69.56
70154;DHT22;57519;51.494;-2.626;2023-05-07T09:52:01;17.15;70.17
70154;DHT22;57519;51.494;-2.626;2023-05-07T09:54:27;16.90;68.96
70154;DHT22;57519;51.494;-2.626;2023-05-07T09:57:01;16.81;69.03
70154;DHT22;57519;51.494;-2.626;2023-05-07T09:59:27;17.19;68.88
70154;DHT22;57519;51.494;-2.626;2023-05-07T10:01:57;17.08;68.79
70154;DHT22;57519;51.494;-2.626;2023-05-07T10:04:24;17.08;68.56
70154;DHT22;57519;51.494;-2.626;2023-05-07T10:06:50;17.04;68.32
70154;DHT22;57519;51.494;-2.626;2023-05-07T10:09:16;17.27;68.62
70154;DHT22;57519;51.494;-2.626;2023-05-07T10:11:42;16.67;69.40
70154;DHT22;57519;51.494;-2.626;2023-05-07T10:14:09;16.06;70.65
70154;DHT22;57519;51.494;-2.626;2023-05-07T10:16:36;15.70;72.22
70154;DHT22;57519;51.494;-2.626;2023-05-07T10:19:03;15.60;72.76
70154;DHT22;57519;51.494;-2.626;2023-05-07T10:21:30;15.44;73.62
70154;DHT22;57519;51.494;-2.626;2023-05-07T10:24:12;15.51;72.91
70154;DHT22;57519;51.494;-2.626;2023-05-07T10:26:48;15.95;72.42
70154;DHT22;57519;51.494;-2.626;2023-05-07T10:29:17;16.18;71.48
70154;DHT22;57519;51.494;-2.626;2023-05-07T10:31:54;16.59;71.31
70154;DHT22;57519;51.494;-2.626;2023-05-07T10:34:28;16.77;70.36
70154;DHT22;57519;51.494;-2.626;2023-05-07T10:36:55;16.84;70.95
70154;DHT22;57519;51.494;-2.626;2023-05-07T10:39:21;16.06;71.85
70154;DHT22;57519;51.494;-2.626;2023-05-07T10:41:48;16.19;73.14
70154;DHT22;57519;51.494;-2.626;2023-05-07T10:44:29;16.15;72.28
70154;DHT22;57519;51.494;-2.626;2023-05-07T10:52:22;16.04;70.94
70154;DHT22;57519;51.494;-2.626;2023-05-07T10:57:40;16.21;72.10
70154;DHT22;57519;51.494;-2.626;2023-05-07T11:08:57;16.00;70.55
70154;DHT22;57519;51.494;-2.626;2023-05-07T11:14:13;16.18;70.82
70154;DHT22;57519;51.494;-2.626;2023-05-07T11:16:40;16.21;70.91
70154;DHT22;57519;51.494;-2.626;2023-05-07T11:19:06;16.11;70.65
70154;DHT22;57519;51.494;-2.626;2023-05-07T11:21:32;16.08;70.80
70154;DHT22;57519;51.494;-2.626;2023-05-07T11:23:59;15.97;71.31
70154;DHT22;57519;51.494;-2.626;2023-05-07T11:26:25;16.23;72.15
70154;DHT22;57519;51.494;-2.626;2023-05-07T11:28:54;16.25;70.43
70154;DHT22;57519;51.494;-2.626;2023-05-07T11:31:22;16.33;71.11
70154;DHT22;57519;51.494;-2.626;2023-05-07T11:33:48;16.32;71.81
70154;DHT22;57519;51.494;-2.626;2023-05-07T11:36:14;16.50;71.21
70154;DHT22;57519;51.494;-2.626;2023-05-07T11:38:40;16.43;70.78
70154;DHT22;57519;51.494;-2.626;2023-05-07T11:41:06;16.74;70.40
70154;DHT22;57519;51.494;-2.626;2023-05-07T11:43:32;17.08;69.58
70154;DHT22;57519;51.494;-2.626;2023-05-07T11:46:09;17.28;69.23
70154;DHT22;57519;51.494;-2.626;2023-05-07T11:48:35;17.12;68.52
70154;DHT22;57519;51.494;-2.626;2023-05-07T11:51:05;17.08;68.96
70154;DHT22;57519;51.494;-2.626;2023-05-07T11:53:39;16.91;69.80
70154;DHT22;57519;51.494;-2.626;2023-05-07T11:56:09;16.94;69.92
70154;DHT22;57519;51.494;-2.626;2023-05-07T11:58:36;16.84;69.55
70154;DHT22;57519;51.494;-2.626;2023-05-07T12:01:02;16.87;70.02
70154;DHT22;57519;51.494;-2.626;2023-05-07T12:03:28;16.77;69.60
70154;DHT22;57519;51.494;-2.626;2023-05-07T12:05:53;16.85;69.42
70154;DHT22;57519;51.494;-2.626;2023-05-07T12:08:20;17.22;69.35
70154;DHT22;57519;51.494;-2.626;2023-05-07T12:10:48;17.52;69.02
70154;DHT22;57519;51.494;-2.626;2023-05-07T12:13:24;17.59;68.18
70154;DHT22;57519;51.494;-2.626;2023-05-07T12:15:55;17.50;68.41
70154;DHT22;57519;51.494;-2.626;2023-05-07T12:18:21;17.83;68.67
70154;DHT22;57519;51.494;-2.626;2023-05-07T12:20:48;18.03;67.73
70154;DHT22;57519;51.494;-2.626;2023-05-07T12:23:14;18.40;67.88
70154;DHT22;57519;51.494;-2.626;2023-05-07T12:25:40;18.25;65.74
70154;DHT22;57519;51.494;-2.626;2023-05-07T12:28:18;17.67;67.04
70154;DHT22;57519;51.494;-2.626;2023-05-07T12:30:46;17.93;67.37
70154;DHT22;57519;51.494;-2.626;2023-05-07T12:33:12;18.17;66.00
70154;DHT22;57519;51.494;-2.626;2023-05-07T12:35:41;18.72;65.14
70154;DHT22;57519;51.494;-2.626;2023-05-07T12:38:15;18.95;65.44
70154;DHT22;57519;51.494;-2.626;2023-05-07T12:41:04;19.18;63.84
70154;DHT22;57519;51.494;-2.626;2023-05-07T12:43:29;19.61;62.96
70154;DHT22;57519;51.494;-2.626;2023-05-07T12:45:57;19.58;63.14
70154;DHT22;57519;51.494;-2.626;2023-05-07T12:48:23;19.74;62.87
70154;DHT22;57519;51.494;-2.626;2023-05-07T12:50:50;19.75;63.51
70154;DHT22;57519;51.494;-2.626;2023-05-07T12:53:16;19.66;62.34
70154;DHT22;57519;51.494;-2.626;2023-05-07T12:55:46;19.26;63.60
70154;DHT22;57519;51.494;-2.626;2023-05-07T12:58:24;18.63;63.72
70154;DHT22;57519;51.494;-2.626;2023-05-07T13:00:51;18.47;64.44
70154;DHT22;57519;51.494;-2.626;2023-05-07T13:03:27;18.37;64.98
70154;DHT22;57519;51.494;-2.626;2023-05-07T13:05:55;18.76;65.68
70154;DHT22;57519;51.494;-2.626;2023-05-07T13:08:28;19.09;64.35
70154;DHT22;57519;51.494;-2.626;2023-05-07T13:10:54;18.82;63.76
70154;DHT22;57519;51.494;-2.626;2023-05-07T13:13:20;19.31;64.26
70154;DHT22;57519;51.494;-2.626;2023-05-07T13:15:47;19.66;63.71
70154;DHT22;57519;51.494;-2.626;2023-05-07T13:18:12;19.04;63.20
70154;DHT22;57519;51.494;-2.626;2023-05-07T13:20:38;18.92;63.85
70154;DHT22;57519;51.494;-2.626;2023-05-07T13:23:03;18.73;64.31
70154;DHT22;57519;51.494;-2.626;2023-05-07T13:25:30;18.85;64.55
70154;DHT22;57519;51.494;-2.626;2023-05-07T13:27:56;18.73;63.65
70154;DHT22;57519;51.494;-2.626;2023-05-07T13:30:22;18.86;64.17
70154;DHT22;57519;51.494;-2.626;2023-05-07T13:32:47;18.72;62.71
70154;DHT22;57519;51.494;-2.626;2023-05-07T13:35:14;18.62;64.25
70154;DHT22;57519;51.494;-2.626;2023-05-07T13:37:39;18.83;63.51
70154;DHT22;57519;51.494;-2.626;2023-05-07T13:40:05;18.59;63.10
70154;DHT22;57519;51.494;-2.626;2023-05-07T13:42:31;18.13;64.28
70154;DHT22;57519;51.494;-2.626;2023-05-07T13:44:56;18.07;65.93
70154;DHT22;57519;51.494;-2.626;2023-05-07T13:47:22;18.28;65.69
70154;DHT22;57519;51.494;-2.626;2023-05-07T13:49:48;18.85;63.87
70154;DHT22;57519;51.494;-2.626;2023-05-07T13:52:17;19.39;62.14
70154;DHT22;57519;51.494;-2.626;2023-05-07T13:54:42;19.50;63.27
70154;DHT22;57519;51.494;-2.626;2023-05-07T13:57:08;19.09;62.19
70154;DHT22;57519;51.494;-2.626;2023-05-07T13:59:33;18.75;63.71
70154;DHT22;57519;51.494;-2.626;2023-05-07T14:01:59;19.00;62.87
70154;DHT22;57519;51.494;-2.626;2023-05-07T14:04:28;18.82;62.62
70154;DHT22;57519;51.494;-2.626;2023-05-07T14:06:53;18.52;62.63
70154;DHT22;57519;51.494;-2.626;2023-05-07T14:11:54;18.79;63.44
70154;DHT22;57519;51.494;-2.626;2023-05-07T14:14:19;19.11;63.13
70154;DHT22;57519;51.494;-2.626;2023-05-07T14:16:45;19.27;62.91
70154;DHT22;57519;51.494;-2.626;2023-05-07T14:19:13;19.00;62.79
70154;DHT22;57519;51.494;-2.626;2023-05-07T14:21:39;18.47;63.57
70154;DHT22;57519;51.494;-2.626;2023-05-07T14:24:06;18.48;64.42
70154;DHT22;57519;51.494;-2.626;2023-05-07T14:26:33;18.44;64.76
70154;DHT22;57519;51.494;-2.626;2023-05-07T14:29:01;18.52;63.40
70154;DHT22;57519;51.494;-2.626;2023-05-07T14:31:26;18.34;64.04
70154;DHT22;57519;51.494;-2.626;2023-05-07T14:36:18;18.83;64.20
70154;DHT22;57519;51.494;-2.626;2023-05-07T14:38:46;18.25;65.25
70154;DHT22;57519;51.494;-2.626;2023-05-07T14:41:12;18.59;65.86
70154;DHT22;57519;51.494;-2.626;2023-05-07T14:43:37;18.49;64.71
70154;DHT22;57519;51.494;-2.626;2023-05-07T14:46:03;18.73;63.77
70154;DHT22;57519;51.494;-2.626;2023-05-07T14:48:28;18.86;63.34
70154;DHT22;57519;51.494;-2.626;2023-05-07T14:50:54;19.10;64.06
70154;DHT22;57519;51.494;-2.626;2023-05-07T14:53:20;19.21;62.80
70154;DHT22;57519;51.494;-2.626;2023-05-07T14:55:46;19.65;63.57
70154;DHT22;57519;51.494;-2.626;2023-05-07T14:58:12;19.68;61.56
70154;DHT22;57519;51.494;-2.626;2023-05-07T15:00:37;19.54;62.01
70154;DHT22;57519;51.494;-2.626;2023-05-07T15:03:09;19.47;61.90
70154;DHT22;57519;51.494;-2.626;2023-05-07T15:05:35;19.16;62.61
70154;DHT22;57519;51.494;-2.626;2023-05-07T15:10:37;19.51;61.57
70154;DHT22;57519;51.494;-2.626;2023-05-07T15:13:10;19.65;62.16
70154;DHT22;57519;51.494;-2.626;2023-05-07T15:15:36;19.85;61.16
70154;DHT22;57519;51.494;-2.626;2023-05-07T15:18:02;19.89;61.24
70154;DHT22;57519;51.494;-2.626;2023-05-07T15:20:28;19.55;61.59
70154;DHT22;57519;51.494;-2.626;2023-05-07T15:22:54;19.58;61.55
70154;DHT22;57519;51.494;-2.626;2023-05-07T15:25:19;19.53;61.27
70154;DHT22;57519;51.494;-2.626;2023-05-07T15:27:45;19.79;61.90
70154;DHT22;57519;51.494;-2.626;2023-05-07T15:30:12;19.72;60.83
70154;DHT22;57519;51.494;-2.626;2023-05-07T15:32:37;19.41;61.07
70154;DHT22;57519;51.494;-2.626;2023-05-07T15:35:04;19.50;61.36
70154;DHT22;57519;51.494;-2.626;2023-05-07T15:37:33;19.57;60.54
70154;DHT22;57519;51.494;-2.626;2023-05-07T15:39:59;19.62;61.27
70154;DHT22;57519;51.494;-2.626;2023-05-07T15:42:27;19.66;61.41
70154;DHT22;57519;51.494;-2.626;2023-05-07T15:44:52;19.41;61.62
70154;DHT22;57519;51.494;-2.626;2023-05-07T15:47:18;19.28;61.41